Time;durP1;ratioP1;P1;durP2;ratioP2;P2;SDS_P1;SDS_P2;PMS_P1;PMS_P2;Temp;Humidity;BMP_temperature;BMP_pressure;BME280_temperature;BME280_humidity;BME280_pressure;Samples;Min_cycle;Max_cycle;Signal;HPM_P1;HPM_P2
2022/12/13 00:01:56;;;;;;;8.60;2.80;;;21.80;53.60;;;;;;215541;1276;24544;-58
2022/12/13 00:07:02;;;;;;;5.80;2.90;;;21.80;53.80;;;;;;215642;1272;22454;-55
2022/12/13 00:12:06;;;;;;;8.80;2.80;;;21.70;53.90;;;;;;214994;1274;649337;-56
2022/12/13 00:17:10;;;;;;;5.50;2.30;;;21.60;53.90;;;;;;216477;1275;25525;-56
2022/12/13 00:22:17;;;;;;;7.00;3.00;;;21.60;54.10;;;;;;215493;1276;22470;-56
2022/12/13 00:27:21;;;;;;;5.00;2.70;;;21.50;54.10;;;;;;215496;1275;22479;-57
2022/12/13 00:32:30;;;;;;;5.70;2.60;;;21.40;54.20;;;;;;215416;1272;24327;-56
2022/12/13 00:37:35;;;;;;;5.10;2.50;;;21.40;54.30;;;;;;215359;1276;22612;-56
2022/12/13 00:42:39;;;;;;;5.20;2.40;;;21.30;54.40;;;;;;218915;1283;22701;-55
2022/12/13 00:47:42;;;;;;;5.70;2.50;;;21.20;54.50;;;;;;215423;1282;22595;-57
2022/12/13 00:52:46;;;;;;;6.10;2.60;;;21.20;54.60;;;;;;215747;1269;25217;-57
2022/12/13 00:57:50;;;;;;;7.80;2.70;;;21.10;55.20;;;;;;215188;1277;25349;-54
2022/12/13 01:02:55;;;;;;;7.50;3.00;;;21.10;55.20;;;;;;215553;1273;26599;-56
2022/12/13 01:07:59;;;;;;;5.10;2.20;;;21.00;55.10;;;;;;215526;1277;24249;-56
2022/12/13 01:13:03;;;;;;;5.00;2.20;;;21.00;55.10;;;;;;215636;1277;23864;-56
2022/12/13 01:18:07;;;;;;;6.10;2.60;;;21.20;54.80;;;;;;215560;1292;25456;-56
2022/12/13 01:23:11;;;;;;;4.80;2.20;;;21.50;54.40;;;;;;215478;1275;25375;-57
2022/12/13 01:28:15;;;;;;;5.30;2.20;;;21.80;53.60;;;;;;215536;1291;23838;-58
2022/12/13 01:33:20;;;;;;;5.30;1.90;;;22.00;53.30;;;;;;215454;1282;24311;-56
2022/12/13 01:38:24;;;;;;;4.00;2.20;;;22.10;53.00;;;;;;215484;1269;24854;-57
2022/12/13 01:43:30;;;;;;;5.40;2.10;;;22.20;52.80;;;;;;215520;1277;24319;-55
2022/12/13 01:48:41;;;;;;;3.70;1.90;;;22.30;52.40;;;;;;215594;1297;26508;-55
2022/12/13 01:53:49;;;;;;;6.00;2.10;;;22.40;52.40;;;;;;215524;1276;25408;-55
2022/12/13 01:58:54;;;;;;;6.80;2.10;;;22.40;52.30;;;;;;215559;1278;22473;-55
2022/12/13 02:03:58;;;;;;;4.80;2.20;;;22.50;52.20;;;;;;215622;1276;22466;-57
2022/12/13 02:09:04;;;;;;;4.40;2.20;;;22.50;52.00;;;;;;215505;1289;22478;-56
2022/12/13 02:14:08;;;;;;;5.30;2.20;;;22.60;51.80;;;;;;215479;1281;22449;-56
2022/12/13 02:19:27;;;;;;;3.70;1.90;;;22.60;51.40;;;;;;215486;1283;25567;-55
2022/12/13 02:24:57;;;;;;;5.00;1.90;;;22.70;51.60;;;;;;215426;1274;24284;-55
2022/12/13 02:30:21;;;;;;;3.20;1.80;;;22.70;51.60;;;;;;215435;1276;22454;-55
2022/12/13 02:35:34;;;;;;;5.10;2.30;;;22.70;51.70;;;;;;215387;1288;22500;-56
2022/12/13 02:41:04;;;;;;;3.20;1.70;;;22.80;51.30;;;;;;217911;1280;22494;-56
2022/12/13 02:46:10;;;;;;;3.70;1.80;;;22.90;51.10;;;;;;221975;1281;24327;-56
2022/12/13 02:51:15;;;;;;;3.60;2.10;;;22.90;50.90;;;;;;215748;1283;23902;-55
2022/12/13 02:56:19;;;;;;;3.80;1.70;;;22.90;50.70;;;;;;215587;1276;23043;-57
2022/12/13 03:01:35;;;;;;;4.60;1.90;;;22.90;50.80;;;;;;215421;1283;22675;-56
2022/12/13 03:07:05;;;;;;;3.60;1.80;;;22.70;51.30;;;;;;215519;1276;22511;-56
2022/12/13 03:17:58;;;;;;;3.80;1.70;;;22.50;51.70;;;;;;215484;1277;25367;-56
2022/12/13 03:23:02;;;;;;;2.60;1.60;;;22.40;51.80;;;;;;215389;1269;22457;-56
2022/12/13 03:28:05;;;;;;;4.30;1.80;;;22.40;51.80;;;;;;215581;1281;22715;-56
2022/12/13 03:33:09;;;;;;;3.90;1.90;;;22.20;52.20;;;;;;215413;1269;24323;-57
2022/12/13 03:38:15;;;;;;;3.00;1.60;;;22.10;52.30;;;;;;215615;1279;22456;-55
2022/12/13 03:43:26;;;;;;;3.30;1.40;;;22.00;52.50;;;;;;215535;1276;22512;-57
2022/12/13 03:48:30;;;;;;;3.10;1.80;;;21.90;52.50;;;;;;215570;1282;22637;-54
2022/12/13 03:53:34;;;;;;;3.50;1.60;;;21.80;52.60;;;;;;215440;1294;24306;-56
2022/12/13 03:58:38;;;;;;;4.70;2.00;;;21.70;52.70;;;;;;215562;1283;23853;-56
2022/12/13 04:03:43;;;;;;;3.00;1.70;;;21.70;52.80;;;;;;215193;1276;25324;-55
2022/12/13 04:08:47;;;;;;;3.50;1.70;;;21.60;52.80;;;;;;215461;1269;25379;-55
2022/12/13 04:13:54;;;;;;;3.40;1.70;;;21.50;52.80;;;;;;215568;1283;22456;-56
2022/12/13 04:19:00;;;;;;;2.80;1.30;;;21.50;52.80;;;;;;215573;1279;22462;-55
2022/12/13 04:24:06;;;;;;;3.10;1.70;;;21.40;53.30;;;;;;215504;1273;22625;-53
2022/12/13 04:29:10;;;;;;;3.30;1.50;;;21.40;53.50;;;;;;215594;1268;24224;-56
2022/12/13 04:34:13;;;;;;;2.50;1.40;;;21.30;53.20;;;;;;215529;1275;25281;-56
2022/12/13 04:39:17;;;;;;;3.20;1.60;;;21.20;53.20;;;;;;215657;1275;24183;-57
2022/12/13 04:44:25;;;;;;;5.50;1.60;;;21.10;53.30;;;;;;215298;1277;24008;-56
2022/12/13 04:49:31;;;;;;;5.00;1.50;;;21.30;53.20;;;;;;215471;1283;23998;-56
2022/12/13 04:54:35;;;;;;;3.50;1.50;;;21.60;52.80;;;;;;215273;1277;23880;-56
2022/12/13 04:59:42;;;;;;;3.10;1.40;;;21.90;52.50;;;;;;215391;1272;24319;-56
2022/12/13 05:04:46;;;;;;;3.00;1.60;;;22.10;51.80;;;;;;215504;1276;24329;-56
2022/12/13 05:09:56;;;;;;;2.20;1.20;;;22.30;51.50;;;;;;215439;1269;23594;-56
2022/12/13 05:15:00;;;;;;;2.20;1.30;;;22.40;51.10;;;;;;215683;1275;23869;-56
2022/12/13 05:20:04;;;;;;;2.20;1.40;;;22.50;51.00;;;;;;215474;1283;25307;-55
2022/12/13 05:25:09;;;;;;;5.60;1.70;;;22.50;50.80;;;;;;215613;1297;25322;-56
2022/12/13 05:30:13;;;;;;;5.90;1.60;;;22.60;50.60;;;;;;215625;1269;23988;-56
2022/12/13 05:35:17;;;;;;;2.70;1.60;;;22.60;50.50;;;;;;215693;1269;22511;-57
2022/12/13 05:40:29;;;;;;;3.10;1.40;;;22.60;50.90;;;;;;215223;1282;24270;-56
2022/12/13 05:45:33;;;;;;;3.50;1.20;;;22.60;50.40;;;;;;215583;1283;22595;-56
2022/12/13 05:50:37;;;;;;;2.90;1.70;;;22.70;50.20;;;;;;215624;1283;24247;-57
2022/12/13 05:55:42;;;;;;;2.60;1.40;;;22.70;50.20;;;;;;215440;1297;24330;-55
2022/12/13 06:00:47;;;;;;;2.40;1.40;;;22.70;50.10;;;;;;215482;1288;22490;-56
2022/12/13 06:05:50;;;;;;;5.10;1.40;;;22.80;50.00;;;;;;215540;1276;22494;-57
2022/12/13 06:10:58;;;;;;;2.90;1.30;;;22.90;50.00;;;;;;215416;1275;22599;-56
2022/12/13 06:16:14;;;;;;;2.00;1.10;;;22.90;49.70;;;;;;215514;1276;23879;-55
2022/12/13 06:21:26;;;;;;;2.50;1.50;;;22.90;49.80;;;;;;215547;1280;24244;-55
2022/12/13 06:26:30;;;;;;;2.40;1.40;;;23.00;49.60;;;;;;215520;1269;22589;-56
2022/12/13 06:31:34;;;;;;;2.70;1.30;;;23.00;49.90;;;;;;215636;1272;25270;-56
2022/12/13 06:36:38;;;;;;;2.60;1.40;;;23.00;49.80;;;;;;215742;1283;24246;-56
2022/12/13 06:41:42;;;;;;;4.90;1.50;;;22.90;50.00;;;;;;215465;1273;23870;-56
2022/12/13 06:46:49;;;;;;;3.00;1.30;;;22.80;50.00;;;;;;215410;1275;22725;-56
2022/12/13 06:52:14;;;;;;;3.90;1.70;;;22.60;50.40;;;;;;215650;1269;22459;-56
2022/12/13 06:57:18;;;;;;;2.00;1.40;;;22.60;50.70;;;;;;215608;1276;22531;-52
2022/12/13 07:02:22;;;;;;;2.60;1.50;;;22.40;51.20;;;;;;215478;1269;22451;-53
2022/12/13 07:07:30;;;;;;;3.30;1.50;;;22.40;52.00;;;;;;215311;1286;24011;-54
2022/12/13 07:12:34;;;;;;;5.90;1.90;;;22.30;51.90;;;;;;215565;1268;25350;-54
2022/12/13 07:17:38;;;;;;;2.60;1.30;;;22.20;52.30;;;;;;215692;1281;22937;-55
2022/12/13 07:22:42;;;;;;;4.00;1.30;;;22.10;52.30;;;;;;215609;1276;23843;-54
2022/12/13 07:28:00;;;;;;;3.50;1.40;;;22.10;52.90;;;;;;215646;1281;22698;-53
2022/12/13 07:33:05;;;;;;;3.00;1.60;;;22.00;53.10;;;;;;215689;1276;23843;-50
2022/12/13 07:38:10;;;;;;;2.90;1.50;;;21.90;53.30;;;;;;215677;1277;22479;-53
2022/12/13 07:43:14;;;;;;;7.00;1.60;;;21.80;53.40;;;;;;215598;1279;22965;-53
2022/12/13 07:48:19;;;;;;;7.00;1.60;;;21.80;53.70;;;;;;215571;1283;23992;-52
2022/12/13 07:53:22;;;;;;;5.50;1.50;;;21.70;54.10;;;;;;215395;1292;22513;-53
2022/12/13 07:58:28;;;;;;;4.60;2.10;;;21.70;53.80;;;;;;215500;1276;25317;-53
2022/12/13 08:03:33;;;;;;;2.80;1.60;;;21.60;53.90;;;;;;215308;1276;26147;-53
2022/12/13 08:08:37;;;;;;;6.70;2.00;;;21.60;53.80;;;;;;215490;1276;22448;-52
2022/12/13 08:13:41;;;;;;;11.50;2.40;;;21.50;54.30;;;;;;215191;1279;22548;-54
2022/12/13 08:18:48;;;;;;;8.30;1.80;;;21.40;54.00;;;;;;215422;1297;25377;-51
2022/12/13 08:23:52;;;;;;;7.90;2.20;;;21.40;53.80;;;;;;215527;1283;24174;-51
2022/12/13 08:28:55;;;;;;;11.30;2.30;;;21.30;55.40;;;;;;215271;1273;23748;-54
2022/12/13 08:34:02;;;;;;;7.20;2.20;;;21.30;56.40;;;;;;215511;1277;23730;-53
2022/12/13 08:39:06;;;;;;;9.50;2.00;;;21.20;56.20;;;;;;215626;1279;22498;-52
2022/12/13 08:44:09;;;;;;;5.50;1.70;;;21.20;56.10;;;;;;215743;1283;24278;-50
2022/12/13 08:49:13;;;;;;;9.30;2.70;;;21.10;56.10;;;;;;215284;1282;22939;-52
2022/12/13 08:54:18;;;;;;;6.00;2.30;;;21.20;55.90;;;;;;215668;1276;22689;-51
2022/12/13 08:59:34;;;;;;;4.50;1.80;;;21.20;55.80;;;;;;215867;1277;22587;-52
2022/12/13 09:04:38;;;;;;;6.20;2.10;;;20.90;55.70;;;;;;215585;1283;23983;-52
2022/12/13 09:09:43;;;;;;;7.50;1.80;;;21.00;55.90;;;;;;215425;1296;22462;-52
2022/12/13 09:14:48;;;;;;;13.20;2.20;;;21.00;56.20;;;;;;215425;1280;26579;-51
2022/12/13 09:19:52;;;;;;;8.30;2.40;;;21.20;54.00;;;;;;216785;1276;22456;-48
2022/12/13 09:25:02;;;;;;;5.40;2.10;;;21.50;53.60;;;;;;215363;1272;24496;-51
2022/12/13 09:30:11;;;;;;;5.10;2.20;;;21.70;52.80;;;;;;215637;1293;22455;-51
2022/12/13 09:35:15;;;;;;;4.90;2.20;;;21.90;52.80;;;;;;215640;1279;24361;-51
2022/12/13 09:40:25;;;;;;;2.80;1.70;;;22.00;51.90;;;;;;215704;1281;22519;-53
2022/12/13 09:45:29;;;;;;;5.10;1.80;;;22.20;51.60;;;;;;215737;1277;22495;-51
2022/12/13 09:50:34;;;;;;;4.50;2.20;;;22.20;51.30;;;;;;215601;1283;23821;-52
2022/12/13 09:55:46;;;;;;;5.60;2.20;;;22.30;51.00;;;;;;215591;1282;25613;-53
2022/12/13 10:00:52;;;;;;;3.40;1.80;;;22.40;50.70;;;;;;215488;1276;23830;-52
2022/12/13 10:06:14;;;;;;;3.50;2.00;;;22.50;50.50;;;;;;215654;1291;25232;-52
2022/12/13 10:11:27;;;;;;;3.60;1.90;;;22.50;50.30;;;;;;215542;1283;23849;-53
2022/12/13 10:16:35;;;;;;;5.70;1.80;;;22.50;50.10;;;;;;215624;1280;22528;-52
2022/12/13 10:21:43;;;;;;;4.20;1.90;;;22.50;49.80;;;;;;215587;1290;25450;-50
2022/12/13 10:26:47;;;;;;;4.00;1.80;;;22.50;49.70;;;;;;215355;1286;24214;-53
2022/12/13 10:31:55;;;;;;;4.90;1.90;;;22.50;49.50;;;;;;215428;1296;23970;-51
2022/12/13 10:37:22;;;;;;;3.00;1.70;;;22.60;49.30;;;;;;215770;1297;22502;-52
2022/12/13 10:42:26;;;;;;;4.20;2.00;;;22.60;49.10;;;;;;215664;1298;25632;-54
2022/12/13 10:47:36;;;;;;;4.60;2.30;;;22.70;49.00;;;;;;215580;1282;26637;-51
2022/12/13 10:52:47;;;;;;;3.70;1.60;;;22.80;48.70;;;;;;215778;1295;22521;-49
2022/12/13 10:58:06;;;;;;;4.10;1.70;;;22.80;48.70;;;;;;215731;1286;23937;-52
2022/12/13 11:03:28;;;;;;;4.80;2.00;;;22.80;48.50;;;;;;215767;1290;25281;-51
2022/12/13 11:08:32;;;;;;;5.30;1.90;;;22.80;48.40;;;;;;215479;1276;22468;-51
2022/12/13 11:13:52;;;;;;;4.90;2.10;;;22.80;48.30;;;;;;215687;1282;24304;-50
2022/12/13 11:19:02;;;;;;;2.30;1.60;;;22.90;48.20;;;;;;215744;1297;25309;-51
2022/12/13 11:24:07;;;;;;;2.80;1.70;;;23.00;48.00;;;;;;215778;1281;25533;-50
2022/12/13 11:29:22;;;;;;;2.80;1.70;;;23.10;47.80;;;;;;215734;1282;24258;-51
2022/12/13 11:34:28;;;;;;;2.60;1.50;;;23.20;47.60;;;;;;215721;1282;22977;-51
2022/12/13 11:39:44;;;;;;;3.10;1.80;;;23.10;47.50;;;;;;215506;1298;23850;-52
2022/12/13 11:45:06;;;;;;;2.80;1.70;;;23.10;47.50;;;;;;215715;1276;22519;-52
2022/12/13 11:50:20;;;;;;;4.40;2.00;;;23.10;48.10;;;;;;215708;1297;22635;-51
2022/12/13 11:55:43;;;;;;;3.10;2.00;;;22.90;47.70;;;;;;215619;1276;24298;-51
2022/12/13 12:00:57;;;;;;;2.60;1.80;;;22.80;47.90;;;;;;215380;1282;22476;-49
2022/12/13 12:06:17;;;;;;;3.60;1.90;;;22.90;47.80;;;;;;215656;1276;24028;-51
2022/12/13 12:11:39;;;;;;;3.20;1.90;;;22.90;48.00;;;;;;215506;1283;185490;-52
2022/12/13 12:16:52;;;;;;;3.20;2.00;;;22.90;47.80;;;;;;215751;1292;23843;-51
2022/12/13 12:22:14;;;;;;;2.30;1.50;;;22.90;47.80;;;;;;215665;1269;22537;-51
2022/12/13 12:27:58;;;;;;;2.50;1.60;;;22.80;48.10;;;;;;215785;1277;24249;-51
2022/12/13 12:33:07;;;;;;;2.70;1.70;;;22.80;47.80;;;;;;215630;1275;22461;-51
2022/12/13 12:38:19;;;;;;;2.90;1.90;;;22.60;47.90;;;;;;215737;1282;24255;-50
2022/12/13 12:43:39;;;;;;;4.80;2.10;;;22.40;48.20;;;;;;215807;1298;25437;-51
2022/12/13 12:49:08;;;;;;;2.60;1.70;;;22.30;48.50;;;;;;215686;1285;24233;-53
2022/12/13 12:54:40;;;;;;;3.20;1.90;;;22.20;48.60;;;;;;215633;1298;22574;-48
2022/12/13 13:00:03;;;;;;;3.60;1.90;;;22.10;48.70;;;;;;215824;1277;22536;-50
2022/12/13 13:05:18;;;;;;;2.90;1.80;;;22.00;48.60;;;;;;215643;1285;23080;-50
2022/12/13 13:10:23;;;;;;;2.70;1.80;;;21.90;48.90;;;;;;215632;1272;22502;-49
2022/12/13 13:15:35;;;;;;;2.80;1.80;;;21.80;49.00;;;;;;215464;1286;23998;-50
2022/12/13 13:20:42;;;;;;;3.20;1.70;;;21.70;49.10;;;;;;215415;1288;23841;-52
2022/12/13 13:25:54;;;;;;;3.30;2.00;;;21.60;49.00;;;;;;215084;1280;22465;-51
2022/12/13 13:31:18;;;;;;;3.30;2.00;;;21.60;49.20;;;;;;215331;1277;25537;-51
2022/12/13 13:36:37;;;;;;;2.90;2.00;;;21.50;49.20;;;;;;215338;1283;22699;-52
2022/12/13 13:41:50;;;;;;;3.40;1.90;;;21.50;49.30;;;;;;215077;1293;22527;-53
2022/12/13 13:47:16;;;;;;;3.00;1.70;;;21.40;49.30;;;;;;215099;1284;23896;-52
2022/12/13 13:52:22;;;;;;;2.90;1.90;;;21.30;49.30;;;;;;215155;1280;22476;-50
2022/12/13 13:58:00;;;;;;;2.80;1.80;;;21.30;49.30;;;;;;215141;1295;22465;-54
2022/12/13 14:03:55;;;;;;;3.30;1.70;;;21.40;49.00;;;;;;215184;1286;22474;-55
2022/12/13 14:09:19;;;;;;;3.10;1.90;;;21.70;48.80;;;;;;215097;1300;22539;-54
2022/12/13 14:14:42;;;;;;;2.60;1.70;;;22.00;47.70;;;;;;215299;1287;24021;-52
2022/12/13 14:20:09;;;;;;;2.80;1.70;;;22.20;47.40;;;;;;215532;1278;22475;-54
2022/12/13 14:25:24;;;;;;;;;;;22.30;47.10;;;;;;215635;1282;22588;-52
2022/12/13 14:30:28;;;;;;;2.40;1.70;;;22.40;46.80;;;;;;215649;1288;22693;-53
2022/12/13 14:35:32;;;;;;;2.90;1.80;;;22.40;46.60;;;;;;215601;1295;22615;-53
2022/12/13 14:40:59;;;;;;;3.10;2.00;;;22.50;46.60;;;;;;215669;1285;26469;-56
2022/12/13 14:46:06;;;;;;;2.70;2.00;;;22.50;46.40;;;;;;215557;1299;22486;-54
2022/12/13 14:51:37;;;;;;;3.00;1.90;;;22.60;46.30;;;;;;215675;1285;24264;-52
2022/12/13 14:57:03;;;;;;;3.20;1.80;;;22.60;46.20;;;;;;215565;1283;25106;-52
2022/12/13 15:02:18;;;;;;;2.90;2.00;;;22.60;46.10;;;;;;215580;1282;22513;-53
2022/12/13 15:07:40;;;;;;;2.80;2.00;;;22.60;46.00;;;;;;215659;1283;24257;-53
2022/12/13 15:12:45;;;;;;;3.30;2.20;;;22.70;45.90;;;;;;215658;1297;26437;-53
2022/12/13 15:18:23;;;;;;;3.20;2.00;;;22.70;45.80;;;;;;215718;1292;22479;-50
2022/12/13 15:23:43;;;;;;;3.00;1.80;;;22.80;45.80;;;;;;215582;1297;24319;-52
2022/12/13 15:29:06;;;;;;;3.70;2.20;;;22.80;45.70;;;;;;215435;1281;22480;-50
2022/12/13 15:34:29;;;;;;;3.00;2.00;;;22.80;45.50;;;;;;215582;1295;22577;-50
2022/12/13 15:39:43;;;;;;;2.70;2.00;;;22.90;45.80;;;;;;215564;1275;25524;-50
2022/12/13 15:44:57;;;;;;;3.40;2.30;;;22.90;45.30;;;;;;215689;1285;24254;-51
2022/12/13 15:50:05;;;;;;;3.80;2.40;;;23.00;45.30;;;;;;215644;1285;24208;-53
2022/12/13 15:55:24;;;;;;;2.70;2.10;;;23.00;45.20;;;;;;215402;1279;22838;-51
2022/12/13 16:00:34;;;;;;;2.90;2.00;;;23.00;45.10;;;;;;215609;1283;25282;-50
2022/12/13 16:05:47;;;;;;;3.30;2.30;;;23.00;45.20;;;;;;215457;1285;23500;-53
2022/12/13 16:10:52;;;;;;;3.90;2.10;;;23.00;45.10;;;;;;215442;1285;25687;-51
2022/12/13 16:15:59;;;;;;;3.20;2.10;;;23.00;45.00;;;;;;215585;1275;22703;-52
2022/12/13 16:21:13;;;;;;;4.00;2.50;;;23.00;44.60;;;;;;215668;1277;22708;-51
2022/12/13 16:26:24;;;;;;;3.70;2.40;;;23.00;44.40;;;;;;215649;1286;22597;-49
2022/12/13 16:31:30;;;;;;;3.70;2.90;;;23.10;44.50;;;;;;215803;1278;25654;-49
2022/12/13 16:36:34;;;;;;;3.90;2.50;;;23.10;44.00;;;;;;215683;1283;22482;-52
2022/12/13 16:41:42;;;;;;;4.20;2.90;;;23.10;44.00;;;;;;215667;1283;22681;-50
2022/12/13 16:46:46;;;;;;;5.20;3.00;;;23.10;43.40;;;;;;215484;1292;23846;-54
2022/12/13 16:52:20;;;;;;;4.70;3.30;;;23.00;43.50;;;;;;215555;1280;23051;-52
2022/12/13 16:57:24;;;;;;;4.80;3.00;;;22.90;43.50;;;;;;215592;1277;22463;-49
2022/12/13 17:02:28;;;;;;;5.00;3.20;;;22.70;44.00;;;;;;215582;1283;24218;-52
2022/12/13 17:07:34;;;;;;;5.00;3.10;;;22.60;43.90;;;;;;215651;1288;23286;-48
2022/12/13 17:12:41;;;;;;;4.90;3.50;;;22.40;44.10;;;;;;215680;1286;24238;-50
2022/12/13 17:17:45;;;;;;;5.60;3.60;;;22.30;44.10;;;;;;215720;1292;22469;-50
2022/12/13 17:22:54;;;;;;;5.20;3.60;;;22.20;44.10;;;;;;215663;1284;22482;-51
2022/12/13 17:27:58;;;;;;;20.30;5.60;;;22.10;44.30;;;;;;215485;1276;25633;-49
2022/12/13 17:33:03;;;;;;;9.60;4.70;;;21.90;44.00;;;;;;215528;1280;22460;-56
2022/12/13 17:38:18;;;;;;;11.50;4.40;;;21.90;44.70;;;;;;215696;1279;23972;-55
2022/12/13 17:43:36;;;;;;;10.20;4.50;;;21.80;44.70;;;;;;215455;1297;25313;-59
2022/12/13 17:48:48;;;;;;;8.30;4.70;;;21.70;44.70;;;;;;215555;1281;23896;-56
2022/12/13 17:54:00;;;;;;;10.80;4.50;;;21.60;44.80;;;;;;215544;1278;24291;-56
2022/12/13 17:59:16;;;;;;;8.70;5.00;;;21.50;45.10;;;;;;215638;1285;22481;-55
2022/12/13 18:04:26;;;;;;;9.40;5.30;;;21.40;45.60;;;;;;215533;1288;22509;-58
2022/12/13 18:09:38;;;;;;;11.60;5.00;;;21.30;45.50;;;;;;215581;1276;24215;-55
2022/12/13 18:14:45;;;;;;;8.20;5.60;;;21.20;45.40;;;;;;215481;1281;22524;-56
2022/12/13 18:19:49;;;;;;;12.80;7.00;;;21.50;44.80;;;;;;215586;1281;22591;-57
2022/12/13 18:24:53;;;;;;;10.00;6.20;;;21.80;44.10;;;;;;215220;1275;23622;-55
2022/12/13 18:29:58;;;;;;;11.90;6.90;;;22.10;44.00;;;;;;215620;1277;25680;-59
2022/12/13 18:35:24;;;;;;;17.70;8.00;;;22.30;43.40;;;;;;215587;1277;22464;-57
2022/12/13 18:40:27;;;;;;;19.80;7.70;;;22.50;43.30;;;;;;215663;1276;22913;-54
2022/12/13 18:45:32;;;;;;;12.80;8.10;;;22.60;43.60;;;;;;215789;1276;22460;-56
2022/12/13 18:50:39;;;;;;;18.00;9.50;;;22.70;43.10;;;;;;215450;1269;22457;-57
2022/12/13 18:55:54;;;;;;;20.60;10.30;;;22.70;43.50;;;;;;215170;1272;24129;-56
2022/12/13 19:00:58;;;;;;;22.60;12.10;;;22.70;43.50;;;;;;216065;1274;22573;-56
2022/12/13 19:06:05;;;;;;;39.50;17.00;;;22.70;42.90;;;;;;215549;1272;22526;-54
2022/12/13 19:11:18;;;;;;;41.60;18.40;;;22.90;42.90;;;;;;215568;1276;22586;-56
2022/12/13 19:16:23;;;;;;;39.40;17.90;;;23.00;43.10;;;;;;215385;1268;24219;-56
2022/12/13 19:21:28;;;;;;;37.20;17.80;;;23.00;42.90;;;;;;215134;1283;23579;-56
2022/12/13 19:26:33;;;;;;;38.40;18.90;;;23.00;42.70;;;;;;215190;1275;23838;-56
2022/12/13 19:31:38;;;;;;;39.60;17.70;;;23.10;42.50;;;;;;215373;1276;22477;-56
2022/12/13 19:36:55;;;;;;;34.70;16.60;;;23.20;42.20;;;;;;215353;1293;23899;-56
2022/12/13 19:42:13;;;;;;;35.20;18.10;;;23.20;42.10;;;;;;215241;1276;25524;-56
2022/12/13 19:47:32;;;;;;;31.80;17.20;;;23.10;42.10;;;;;;215463;1276;25331;-58
2022/12/13 19:53:01;;;;;;;34.60;16.60;;;23.00;42.40;;;;;;215388;1282;24206;-57
2022/12/13 19:58:33;;;;;;;36.60;17.00;;;22.90;42.20;;;;;;215386;1283;22539;-57
2022/12/13 20:04:12;;;;;;;29.00;16.10;;;22.80;42.50;;;;;;215296;1276;25345;-60
2022/12/13 20:10:02;;;;;;;37.60;16.40;;;22.70;42.30;;;;;;214558;1276;22599;-60
2022/12/13 20:15:18;;;;;;;31.30;15.10;;;22.60;43.20;;;;;;214529;1279;23741;-57
2022/12/13 20:20:27;;;;;;;32.10;17.20;;;22.50;43.40;;;;;;214659;1280;24369;-63
2022/12/13 20:26:05;;;;;;;;;;;22.40;43.30;;;;;;214838;1281;22605;-60
2022/12/13 20:31:47;;;;;;;31.80;16.10;;;22.30;43.40;;;;;;214609;1277;25473;-59
2022/12/13 20:37:00;;;;;;;29.30;16.30;;;22.20;43.70;;;;;;214850;1279;22540;-61
2022/12/13 20:42:39;;;;;;;28.30;16.90;;;22.00;43.50;;;;;;215081;1285;22644;-60
2022/12/13 20:47:57;;;;;;;28.20;16.50;;;22.00;43.60;;;;;;215511;1277;25224;-59
2022/12/13 20:53:06;;;;;;;31.30;15.30;;;21.90;43.10;;;;;;215349;1283;22482;-60
2022/12/13 20:58:11;;;;;;;30.80;16.10;;;21.80;43.20;;;;;;215653;1277;24256;-60
2022/12/13 21:03:16;;;;;;;33.20;17.10;;;21.60;43.60;;;;;;215639;1269;22472;-59
2022/12/13 21:13:48;;;;;;;30.00;15.80;;;21.60;44.60;;;;;;215644;1277;22494;-59
2022/12/13 21:18:57;;;;;;;34.30;16.90;;;21.60;44.80;;;;;;215292;1275;22462;-58
2022/12/13 21:24:05;;;;;;;26.60;14.70;;;21.40;45.10;;;;;;215656;1277;24289;-59
2022/12/13 21:29:11;;;;;;;36.30;16.80;;;21.40;45.50;;;;;;215740;1269;22462;-60
2022/12/13 21:34:16;;;;;;;31.20;16.40;;;21.40;46.00;;;;;;215691;1279;22706;-60
2022/12/13 21:39:23;;;;;;;31.90;16.50;;;21.30;46.20;;;;;;215699;1282;22585;-58
2022/12/13 21:44:33;;;;;;;32.10;15.50;;;21.30;46.90;;;;;;215670;1276;22460;-59
2022/12/13 21:49:38;;;;;;;27.70;15.90;;;21.20;46.80;;;;;;215719;1281;24326;-64
2022/12/13 21:54:57;;;;;;;34.00;16.40;;;21.20;46.90;;;;;;215431;1278;24641;-59
2022/12/13 22:00:31;;;;;;;26.10;15.20;;;21.10;47.00;;;;;;215671;1275;22479;-58
2022/12/13 22:05:43;;;;;;;28.30;15.80;;;21.20;47.50;;;;;;215613;1286;22468;-60
2022/12/13 22:16:32;;;;;;;25.50;16.10;;;21.80;45.80;;;;;;215682;1276;24384;-57
2022/12/13 22:21:40;;;;;;;26.60;15.60;;;22.10;46.30;;;;;;215645;1283;24345;-61
2022/12/13 22:26:44;;;;;;;26.30;16.90;;;22.20;45.10;;;;;;215631;1276;22602;-58
2022/12/13 22:31:48;;;;;;;26.10;15.60;;;22.10;45.20;;;;;;215600;1281;25546;-58
2022/12/13 22:36:57;;;;;;;26.50;15.50;;;22.20;45.40;;;;;;215517;1280;22482;-56
2022/12/13 22:42:13;;;;;;;27.10;16.60;;;22.30;45.30;;;;;;215666;1294;23892;-56
2022/12/13 22:47:17;;;;;;;24.40;15.80;;;22.40;45.00;;;;;;215804;1276;22467;-53
2022/12/13 22:52:21;;;;;;;26.50;16.30;;;22.40;45.40;;;;;;215557;1283;25499;-56
2022/12/13 22:57:25;;;;;;;27.70;16.10;;;22.50;45.00;;;;;;215724;1277;22470;-58
2022/12/13 23:02:29;;;;;;;27.20;15.90;;;22.60;45.30;;;;;;215668;1283;23996;-56
2022/12/13 23:07:35;;;;;;;26.80;15.80;;;22.60;45.20;;;;;;215751;1283;25281;-57
2022/12/13 23:18:02;;;;;;;30.20;15.20;;;22.50;45.30;;;;;;215656;1269;22920;-57
2022/12/13 23:23:06;;;;;;;31.40;16.20;;;22.80;49.00;;;;;;215791;1285;26134;-58
2022/12/13 23:28:11;;;;;;;28.10;15.60;;;23.00;50.40;;;;;;215639;1276;25514;-56
2022/12/13 23:33:15;;;;;;;31.10;15.30;;;23.00;50.20;;;;;;215682;1275;25299;-57
2022/12/13 23:38:19;;;;;;;29.30;15.80;;;23.10;50.10;;;;;;215581;1282;23338;-55
2022/12/13 23:43:28;;;;;;;31.20;16.80;;;23.00;50.00;;;;;;215636;1281;22503;-55
2022/12/13 23:48:34;;;;;;;26.80;15.20;;;22.90;50.70;;;;;;215511;1277;22605;-54
2022/12/13 23:53:41;;;;;;;31.30;16.90;;;22.80;50.60;;;;;;215624;1282;23186;-56
2022/12/13 23:58:47;;;;;;;27.80;15.80;;;22.60;51.00;;;;;;215708;1283;22698;-56
